Time;durP1;ratioP1;P1;durP2;ratioP2;P2;SDS_P1;SDS_P2;PMS_P1;PMS_P2;Temp;Humidity;BMP_temperature;BMP_pressure;BME280_temperature;BME280_humidity;BME280_pressure;Samples;Min_cycle;Max_cycle;Signal;HPM_P1;HPM_P2
2022/08/11 00:00:34;;;;;;;11.10;6.32;;;;;;;18.04;64.73;102152.72;5044505;28;20037;-70
2022/08/11 00:03:04;;;;;;;11.38;6.63;;;;;;;17.99;64.96;102147.06;5044259;28;20045;-70
2022/08/11 00:05:30;;;;;;;11.40;6.90;;;;;;;18.04;65.45;102154.66;5043050;28;20103;-70
2022/08/11 00:07:57;;;;;;;11.98;5.93;;;;;;;17.99;65.36;102149.00;5044280;28;20577;-70
2022/08/11 00:10:25;;;;;;;12.07;6.15;;;;;;;17.96;65.27;102147.59;5044446;28;20021;-70
2022/08/11 00:12:53;;;;;;;13.00;6.68;;;;;;;17.90;65.42;102143.03;5044094;28;20033;-70
2022/08/11 00:15:19;;;;;;;13.10;6.78;;;;;;;17.93;65.68;102148.06;5042463;28;20017;-71
2022/08/11 00:17:45;;;;;;;11.45;6.88;;;;;;;17.88;66.08;102146.03;5044473;28;20843;-70
2022/08/11 00:20:14;;;;;;;9.80;6.70;;;;;;;17.77;65.78;102146.94;5042680;28;20388;-70
2022/08/11 00:22:40;;;;;;;;;;;;;;;18.01;63.51;102144.91;5044810;28;20116;-70
2022/08/11 00:25:17;;;;;;;11.50;6.82;;;;;;;17.80;66.04;102151.16;5043723;28;20470;-70
2022/08/11 00:27:42;;;;;;;11.25;6.57;;;;;;;17.68;66.74;102153.09;5044515;28;20120;-70
2022/08/11 00:30:10;;;;;;;12.50;7.03;;;;;;;17.62;66.31;102144.66;5042525;28;20108;-70
2022/08/11 00:32:42;;;;;;;10.60;6.53;;;;;;;17.55;66.68;102146.75;5043625;28;20652;-69
2022/08/11 00:35:12;;;;;;;11.90;6.72;;;;;;;17.56;66.94;102139.25;5042637;28;20021;-69
2022/08/11 00:37:38;;;;;;;9.93;6.55;;;;;;;17.53;67.14;102145.28;5043871;28;20025;-70
2022/08/11 00:40:13;;;;;;;10.23;6.20;;;;;;;17.49;66.93;102147.72;5043473;28;20499;-70
2022/08/11 00:43:06;;;;;;;10.60;6.82;;;;;;;17.51;66.91;102147.47;5043698;28;20107;-70
2022/08/11 00:45:41;;;;;;;11.30;6.40;;;;;;;17.46;67.36;102139.03;5043075;28;20031;-70
2022/08/11 00:48:23;;;;;;;13.15;6.75;;;;;;;17.45;66.99;102143.75;5026591;28;20291;-70
2022/08/11 00:51:14;;;;;;;12.65;6.50;;;;;;;17.52;66.78;102147.22;5023161;28;20033;-70
2022/08/11 00:53:58;;;;;;;12.18;6.78;;;;;;;17.43;67.66;102140.34;5023659;28;20108;-70
2022/08/11 00:56:29;;;;;;;10.55;6.68;;;;;;;17.47;67.44;102137.94;5023515;28;20496;-71
2022/08/11 00:59:16;;;;;;;12.13;6.53;;;;;;;17.46;66.23;102137.09;5023077;28;20037;-70
2022/08/11 01:01:58;;;;;;;9.90;6.57;;;;;;;17.44;66.58;102138.44;5022118;28;20322;-70
2022/08/11 01:07:26;;;;;;;11.55;6.63;;;;;;;17.30;67.21;102151.75;5049930;22;20136;-70
2022/08/11 01:09:51;;;;;;;11.32;6.63;;;;;;;17.31;67.58;102142.31;5042221;28;20032;-70
2022/08/11 01:12:43;;;;;;;10.87;6.17;;;;;;;17.34;66.77;102145.47;5043399;28;20036;-70
2022/08/11 01:15:27;;;;;;;11.32;6.55;;;;;;;17.18;67.65;102146.19;5042488;28;20027;-70
2022/08/11 01:18:39;;;;;;;14.68;7.07;;;;;;;17.23;67.27;102140.75;5042438;28;20074;-70
2022/08/11 01:21:44;;;;;;;9.27;6.75;;;;;;;17.02;69.10;102144.16;4951170;28;20147;-70
2022/08/11 01:24:43;;;;;;;10.75;6.85;;;;;;;17.06;67.90;102134.25;5022623;28;20017;-70
2022/08/11 01:27:31;;;;;;;12.25;7.20;;;;;;;17.03;67.78;102146.72;5022394;28;20023;-70
2022/08/11 01:29:56;;;;;;;;;;;;;;;17.15;65.96;102146.69;5022853;28;20034;-71
2022/08/11 01:33:15;;;;;;;13.93;7.57;;;;;;;16.96;68.16;102142.34;5022318;28;19919;-70
2022/08/11 01:35:52;;;;;;;12.85;6.80;;;;;;;16.84;68.87;102142.38;5010403;28;21069;-70
2022/08/11 01:38:42;;;;;;;13.35;8.13;;;;;;;16.89;68.13;102139.72;5042386;28;20025;-70
2022/08/11 01:41:19;;;;;;;13.95;8.43;;;;;;;16.87;68.63;102147.41;5041820;28;20041;-70
2022/08/11 01:44:36;;;;;;;13.23;8.00;;;;;;;16.92;67.84;102144.75;5042768;28;20063;-70
2022/08/11 01:50:12;;;;;;;10.88;7.63;;;;;;;16.91;68.20;102136.69;5041042;28;20047;-70
2022/08/11 01:53:07;;;;;;;15.05;7.78;;;;;;;16.99;67.70;102139.09;5041539;28;20076;-71
2022/08/11 01:55:48;;;;;;;12.18;7.55;;;;;;;16.94;68.51;102134.28;5032534;28;20383;-70
2022/08/11 01:58:25;;;;;;;11.02;6.55;;;;;;;16.93;68.07;102140.94;5042088;28;20035;-71
2022/08/11 02:01:22;;;;;;;11.15;7.30;;;;;;;16.91;68.08;102136.69;5041721;28;20522;-68
2022/08/11 02:04:05;;;;;;;10.00;6.97;;;;;;;16.91;68.66;102143.06;5041847;28;20119;-71
2022/08/11 02:06:54;;;;;;;11.80;7.32;;;;;;;16.88;68.51;102143.59;5040900;28;20076;-71
2022/08/11 02:09:32;;;;;;;13.27;6.85;;;;;;;16.86;68.75;102142.97;5042166;28;20047;-70
2022/08/11 02:12:02;;;;;;;;;;;;;;;17.04;66.53;102145.63;5040606;28;20040;-70
2022/08/11 02:14:38;;;;;;;12.00;6.53;;;;;;;16.93;67.56;102145.59;5041941;28;19913;-70
2022/08/11 02:17:36;;;;;;;13.30;7.25;;;;;;;16.93;67.40;102140.94;5041326;28;20040;-71
2022/08/11 02:26:05;;;;;;;11.70;6.95;;;;;;;16.81;68.17;102148.38;5041719;28;20033;-71
2022/08/11 02:28:49;;;;;;;13.48;7.18;;;;;;;16.79;68.71;102148.63;5040378;28;20040;-70
2022/08/11 02:34:46;;;;;;;10.57;6.75;;;;;;;16.71;68.85;102142.56;5036418;28;20086;-71
2022/08/11 02:37:26;;;;;;;12.05;6.65;;;;;;;16.73;69.27;102140.44;5040850;28;20147;-71
2022/08/11 02:39:56;;;;;;;10.40;6.63;;;;;;;16.60;69.69;102136.75;5041617;28;20025;-70
2022/08/11 02:42:26;;;;;;;9.77;6.85;;;;;;;16.65;69.77;102137.97;5041479;28;20438;-70
2022/08/11 02:45:10;;;;;;;11.63;7.35;;;;;;;16.57;70.07;102137.25;5040054;28;20155;-71
2022/08/11 02:51:11;;;;;;;10.02;7.20;;;;;;;16.44;70.84;102131.91;5041029;28;20075;-70
2022/08/11 02:54:05;;;;;;;12.82;7.38;;;;;;;16.35;71.25;102131.41;5041696;28;20064;-70
2022/08/11 02:57:10;;;;;;;9.38;6.75;;;;;;;16.32;71.13;102140.22;5041358;28;20549;-70
2022/08/11 02:59:50;;;;;;;10.70;7.18;;;;;;;16.21;72.65;102137.41;5003318;28;20037;-70
2022/08/11 03:02:30;;;;;;;11.70;7.55;;;;;;;16.16;72.01;102145.59;5042436;28;20025;-70
2022/08/11 03:05:16;;;;;;;12.57;7.70;;;;;;;16.08;72.52;102132.91;5040471;28;20044;-70
2022/08/11 03:08:12;;;;;;;12.40;7.53;;;;;;;16.08;71.96;102138.47;5041289;28;20029;-70
2022/08/11 03:10:41;;;;;;;12.80;7.75;;;;;;;16.09;72.51;102141.00;5040792;28;20036;-71
2022/08/11 03:19:27;;;;;;;11.80;7.30;;;;;;;15.95;72.91;102144.19;5039405;28;20071;-70
2022/08/11 03:22:06;;;;;;;13.48;7.68;;;;;;;15.94;72.71;102135.03;5040414;28;20037;-70
2022/08/11 03:24:56;;;;;;;11.70;7.40;;;;;;;15.91;72.93;102132.72;5043123;28;20115;-70
2022/08/11 03:27:43;;;;;;;12.73;7.13;;;;;;;15.82;73.15;102134.16;5044271;28;20474;-70
2022/08/11 03:30:17;;;;;;;12.43;7.45;;;;;;;15.85;72.94;102130.91;5044350;28;20029;-71
2022/08/11 03:36:16;;;;;;;14.18;7.60;;;;;;;15.79;73.07;102141.00;5043748;28;20098;-70
2022/08/11 03:39:12;;;;;;;12.25;6.97;;;;;;;15.77;73.71;102139.56;5043379;28;20029;-70
2022/08/11 03:42:06;;;;;;;11.45;7.38;;;;;;;15.79;72.82;102140.16;5040369;28;20103;-70
2022/08/11 03:44:42;;;;;;;13.05;7.50;;;;;;;15.74;73.67;102131.69;5044672;28;20097;-70
2022/08/11 03:47:30;;;;;;;11.85;8.07;;;;;;;15.73;73.24;102130.00;5044365;28;20071;-70
2022/08/11 03:50:10;;;;;;;10.85;7.28;;;;;;;15.70;73.51;102125.75;5044512;28;20048;-71
2022/08/11 03:52:54;;;;;;;11.05;7.85;;;;;;;15.72;73.62;102133.88;5043699;28;20755;-71
2022/08/11 03:55:27;;;;;;;10.32;7.25;;;;;;;15.68;73.60;102136.25;5044707;28;20048;-71
2022/08/11 03:58:25;;;;;;;12.43;7.60;;;;;;;15.68;73.98;102132.63;5042695;28;20029;-70
2022/08/11 04:01:22;;;;;;;10.55;7.32;;;;;;;15.67;73.61;102133.72;5043954;28;20029;-70
2022/08/11 04:04:14;;;;;;;11.48;7.70;;;;;;;15.54;74.18;102127.22;5043648;28;20119;-71
2022/08/11 04:07:11;;;;;;;10.48;7.57;;;;;;;15.49;74.55;102129.84;5042830;28;20048;-70
2022/08/11 04:09:45;;;;;;;11.82;8.05;;;;;;;15.42;74.98;102133.78;5043617;28;20675;-70
2022/08/11 04:12:29;;;;;;;11.95;7.88;;;;;;;15.38;75.64;102138.09;5043377;28;20285;-70
2022/08/11 04:18:39;;;;;;;12.15;7.63;;;;;;;15.41;75.34;102132.94;5062814;28;20044;-71
2022/08/11 04:21:15;;;;;;;13.45;8.18;;;;;;;15.29;76.21;102129.25;5018845;28;20033;-70
2022/08/11 04:24:05;;;;;;;10.18;7.78;;;;;;;15.29;76.36;102138.38;5043799;28;20117;-70
2022/08/11 04:26:58;;;;;;;13.57;8.27;;;;;;;15.26;76.42;102132.50;5043569;28;20036;-71
2022/08/11 04:29:57;;;;;;;12.90;8.48;;;;;;;15.23;76.77;102128.25;5043295;28;20032;-70
2022/08/11 04:32:41;;;;;;;13.80;8.88;;;;;;;15.11;77.34;102127.34;5024089;28;20029;-70
2022/08/11 04:35:21;;;;;;;11.60;8.38;;;;;;;15.07;77.26;102125.25;5042908;28;20041;-71
2022/08/11 04:37:53;;;;;;;12.45;8.75;;;;;;;15.04;77.29;102127.38;5043826;28;20824;-70
2022/08/11 04:40:50;;;;;;;11.70;8.65;;;;;;;15.10;77.00;102125.63;5043802;28;20025;-70
2022/08/11 04:43:59;;;;;;;13.70;9.00;;;;;;;15.19;76.71;102137.25;5043401;28;20495;-70
2022/08/11 04:46:54;;;;;;;16.20;8.95;;;;;;;15.21;76.77;102133.19;5042651;28;20039;-70
2022/08/11 05:02:04;;;;;;;11.93;8.70;;;;;;;15.22;77.30;102126.56;5042482;28;20044;-71
2022/08/11 05:08:13;;;;;;;12.80;8.63;;;;;;;15.40;76.33;102133.16;5041609;28;20047;-71
2022/08/11 05:10:59;;;;;;;14.38;9.55;;;;;;;15.42;75.87;102129.09;5062330;28;20048;-70
2022/08/11 05:36:40;;;;;;;14.15;9.50;;;;;;;15.88;75.84;102135.13;5041608;28;20114;-71
2022/08/11 05:56:15;;;;;;;16.08;10.85;;;;;;;16.19;76.57;102140.41;5061508;28;20549;-70
2022/08/11 05:58:43;;;;;;;16.67;11.23;;;;;;;16.24;76.17;102146.09;5058944;28;20064;-70
2022/08/11 06:01:20;;;;;;;14.93;10.93;;;;;;;16.31;76.74;102148.75;5059123;28;20032;-71
2022/08/11 06:06:35;;;;;;;;;;;;;;;16.56;74.22;102135.53;5041848;28;20646;-70
2022/08/11 06:09:01;;;;;;;15.82;11.75;;;;;;;16.60;75.48;102142.31;5041745;28;19912;-71
2022/08/11 06:11:28;;;;;;;17.90;11.98;;;;;;;16.67;76.53;102146.88;5041714;28;20386;-71
2022/08/11 06:13:55;;;;;;;16.23;11.80;;;;;;;16.69;76.73;102141.97;5041501;28;20399;-71
2022/08/11 06:16:24;;;;;;;16.95;11.82;;;;;;;16.76;77.27;102145.50;5045042;28;20044;-70
2022/08/11 06:18:50;;;;;;;18.20;12.43;;;;;;;16.94;75.71;102147.31;5061224;28;20063;-71
2022/08/11 06:21:17;;;;;;;17.08;12.70;;;;;;;17.09;73.98;102145.75;5061738;28;20236;-70
2022/08/11 06:23:43;;;;;;;18.65;12.60;;;;;;;17.18;74.15;102150.91;5061739;28;20016;-71
2022/08/11 06:26:11;;;;;;;19.27;12.88;;;;;;;17.25;75.01;102151.63;5060931;28;20021;-71
2022/08/11 06:28:38;;;;;;;20.08;12.55;;;;;;;17.47;72.66;102149.88;5061091;28;20710;-71
2022/08/11 06:31:16;;;;;;;20.73;13.93;;;;;;;17.62;72.79;102154.94;5043342;28;20471;-71
2022/08/11 06:33:47;;;;;;;18.27;12.52;;;;;;;17.80;71.99;102153.94;5055217;28;20024;-71
2022/08/11 06:36:22;;;;;;;22.52;12.60;;;;;;;17.97;71.40;102145.66;5060613;28;20409;-70
2022/08/11 06:39:15;;;;;;;21.38;12.80;;;;;;;18.10;70.08;102139.81;5061868;28;20036;-70
2022/08/11 06:41:48;;;;;;;21.67;12.18;;;;;;;18.15;70.57;102142.69;5061585;28;20226;-70
2022/08/11 06:44:22;;;;;;;20.33;12.77;;;;;;;18.28;70.32;102147.06;5061007;28;20048;-71
2022/08/11 06:46:54;;;;;;;18.45;11.80;;;;;;;18.41;69.67;102152.31;5061348;28;20071;-70
2022/08/11 06:52:12;;;;;;;18.77;12.35;;;;;;;18.67;67.88;102145.25;5049809;28;20055;-70
2022/08/11 06:54:47;;;;;;;23.25;12.38;;;;;;;18.89;65.95;102148.13;5040878;28;20032;-70
2022/08/11 07:03:10;;;;;;;16.73;10.55;;;;;;;19.52;64.72;102146.81;5044660;28;20072;-70
2022/08/11 07:05:54;;;;;;;19.73;11.05;;;;;;;19.64;62.92;102150.31;5044488;28;20124;-70
2022/08/11 07:17:20;;;;;;;13.98;9.68;;;;;;;20.16;61.05;102140.56;5044717;28;20447;-71
2022/08/11 07:31:08;;;;;;;17.58;10.57;;;;;;;20.83;58.28;102140.06;5044680;28;20072;-70
2022/08/11 07:33:56;;;;;;;15.68;10.85;;;;;;;20.94;59.03;102141.00;5025597;28;20492;-71
2022/08/11 07:36:27;;;;;;;14.30;10.00;;;;;;;21.08;57.25;102144.97;5044423;28;20074;-70
2022/08/11 07:38:55;;;;;;;18.20;10.05;;;;;;;21.30;56.81;102144.00;5044030;28;20025;-71
2022/08/11 07:41:22;;;;;;;18.23;9.73;;;;;;;21.71;56.43;102147.84;5044508;28;20021;-67
2022/08/11 07:43:51;;;;;;;20.35;9.77;;;;;;;21.92;55.72;102151.56;5024558;28;20114;-71
2022/08/11 07:54:35;;;;;;;16.30;9.50;;;;;;;21.99;55.92;102152.13;5044737;28;20094;-70
2022/08/11 08:19:03;;;;;;;15.52;9.43;;;;;;;22.69;50.01;102144.94;5047168;28;20039;-71
2022/08/11 08:21:30;;;;;;;13.95;8.02;;;;;;;22.80;50.24;102145.78;5063044;28;20028;-71
2022/08/11 08:23:57;;;;;;;14.65;8.05;;;;;;;22.89;50.45;102141.31;5063354;28;20032;-71
2022/08/11 08:31:52;;;;;;;15.52;8.63;;;;;;;23.25;47.94;102149.66;5054802;28;20100;-71
2022/08/11 08:34:18;;;;;;;17.48;9.45;;;;;;;23.31;46.87;102140.94;5042474;28;20509;-71
2022/08/11 08:36:45;;;;;;;14.80;9.00;;;;;;;23.41;48.36;102136.44;5042635;28;20032;-70
2022/08/11 08:39:12;;;;;;;13.98;8.73;;;;;;;23.54;47.94;102144.25;5043429;28;20086;-69
2022/08/11 08:41:38;;;;;;;18.58;8.80;;;;;;;23.62;46.59;102143.66;5043213;28;20112;-71
2022/08/11 08:44:08;;;;;;;11.75;8.27;;;;;;;23.73;47.40;102142.50;5042198;28;20108;-71
2022/08/11 08:46:39;;;;;;;15.88;8.20;;;;;;;23.91;46.70;102142.97;5043202;28;20047;-71
2022/08/11 08:49:06;;;;;;;15.90;9.25;;;;;;;24.00;46.16;102142.06;5042686;28;20377;-70
2022/08/11 08:51:36;;;;;;;11.65;8.55;;;;;;;24.16;45.81;102145.59;5042652;28;20019;-71
2022/08/11 08:54:15;;;;;;;10.65;7.93;;;;;;;24.32;47.29;102144.38;5042024;28;20041;-71
2022/08/11 08:56:43;;;;;;;12.43;8.38;;;;;;;24.41;45.47;102135.38;5042579;28;20060;-71
2022/08/11 08:59:10;;;;;;;;;;;;;;;24.52;46.60;102142.56;5043423;28;20103;-71
2022/08/11 09:01:47;;;;;;;19.02;8.52;;;;;;;24.65;44.61;102147.53;5043376;28;20343;-71
2022/08/11 09:04:14;;;;;;;14.35;8.02;;;;;;;24.81;43.41;102146.25;5042178;28;20056;-71
2022/08/11 09:06:42;;;;;;;11.32;7.60;;;;;;;24.97;44.18;102134.84;5042161;28;20110;-70
2022/08/11 09:09:08;;;;;;;11.18;7.30;;;;;;;25.18;42.16;102139.16;5042491;28;20043;-70
2022/08/11 09:17:22;;;;;;;13.30;7.90;;;;;;;25.68;40.26;102136.84;5041925;28;20067;-71
2022/08/11 09:19:57;;;;;;;10.30;6.78;;;;;;;25.94;40.46;102140.19;5043056;28;20103;-70
2022/08/11 09:27:55;;;;;;;10.48;6.38;;;;;;;28.44;38.37;102138.25;5042288;28;20043;-70
2022/08/11 09:30:25;;;;;;;11.82;6.05;;;;;;;30.81;34.05;102135.44;5040967;28;20040;-70
2022/08/11 09:32:59;;;;;;;10.55;5.72;;;;;;;33.15;29.04;102127.28;5041742;28;20047;-69
2022/08/11 09:35:26;;;;;;;9.57;5.65;;;;;;;34.64;25.52;102136.94;5041746;28;20151;-69
2022/08/11 09:40:41;;;;;;;9.88;5.63;;;;;;;37.19;22.01;102122.41;5042720;28;20048;-66
2022/08/11 09:45:56;;;;;;;12.27;5.75;;;;;;;37.95;21.00;102128.13;5045117;28;20424;-67
2022/08/11 09:48:25;;;;;;;;;;;;;;;38.81;22.39;102123.47;5061331;28;20107;-67
2022/08/11 09:50:59;;;;;;;9.27;5.43;;;;;;;38.36;21.75;102120.50;5061039;28;20371;-67
2022/08/11 09:53:34;;;;;;;10.95;5.10;;;;;;;38.34;21.11;102113.50;5062281;28;20029;-67
2022/08/11 09:58:12;;;;;;;11.63;5.93;;;;;;;38.59;20.56;102117.50;5062221;28;20028;-67
2022/08/11 09:58:46;;;;;;;14.60;5.90;;;;;;;39.50;19.76;102112.22;5062265;28;20063;-67
2022/08/11 10:01:25;;;;;;;10.63;5.88;;;;;;;39.96;18.77;102111.69;5061671;28;20025;-67
2022/08/11 10:03:56;;;;;;;9.52;5.43;;;;;;;39.63;18.91;102104.91;5041137;28;20048;-67
2022/08/11 10:09:06;;;;;;;10.90;5.38;;;;;;;40.15;18.16;102107.69;5041885;28;20087;-67
2022/08/11 10:11:35;;;;;;;10.95;5.45;;;;;;;40.27;18.56;102106.50;5041054;28;20104;-67
2022/08/11 10:16:49;;;;;;;9.45;4.97;;;;;;;40.54;17.70;102092.63;5040776;28;20056;-68
2022/08/11 10:19:18;;;;;;;10.77;5.30;;;;;;;40.95;17.97;102087.34;5041895;28;20028;-69
2022/08/11 10:27:18;;;;;;;8.18;4.47;;;;;;;41.01;16.50;102087.75;5042009;28;20064;-68
2022/08/11 10:35:15;;;;;;;10.18;4.75;;;;;;;41.03;16.45;102080.34;5045184;28;20044;-68
2022/08/11 10:37:43;;;;;;;10.20;5.57;;;;;;;40.33;17.26;102084.72;5045887;28;20132;-68
2022/08/11 10:40:14;;;;;;;9.52;4.88;;;;;;;40.79;16.44;102075.38;5045054;28;20461;-67
2022/08/11 10:48:09;;;;;;;8.95;5.10;;;;;;;40.40;17.05;102070.34;5044760;28;20452;-68
2022/08/11 10:58:51;;;;;;;9.50;4.70;;;;;;;41.52;15.90;102074.94;5045034;28;20517;-67
2022/08/11 11:01:21;;;;;;;9.32;4.72;;;;;;;41.72;16.71;102065.44;5045437;28;20484;-67
2022/08/11 11:03:51;;;;;;;9.30;4.93;;;;;;;41.86;15.38;102064.56;5045582;28;20063;-68
2022/08/11 11:06:49;;;;;;;8.82;4.80;;;;;;;41.78;17.30;102062.16;5044329;28;20377;-68
2022/08/11 11:09:18;;;;;;;9.27;4.47;;;;;;;40.85;16.85;102062.19;5044163;28;20036;-67
2022/08/11 11:20:21;;;;;;;9.23;4.50;;;;;;;35.85;21.26;102047.78;5064467;28;20043;-67
2022/08/11 11:22:51;;;;;;;8.30;4.80;;;;;;;35.07;21.68;102043.88;5065594;28;20017;-67
2022/08/11 11:26:05;;;;;;;8.75;4.13;;;;;;;34.70;23.05;102052.69;5064973;28;20029;-67
2022/08/11 11:29:01;;;;;;;9.80;4.15;;;;;;;34.50;24.31;102043.19;5034741;28;20039;-67
2022/08/11 11:31:47;;;;;;;8.73;4.65;;;;;;;34.40;24.14;102049.41;5059493;28;20042;-67
2022/08/11 11:34:37;;;;;;;8.70;4.45;;;;;;;34.43;24.17;102042.16;5064156;28;20056;-67
2022/08/11 11:37:03;;;;;;;8.68;4.30;;;;;;;34.04;22.98;102031.28;5064245;28;20036;-67
2022/08/11 11:39:34;;;;;;;7.32;3.72;;;;;;;33.69;22.88;102038.72;5064630;28;20051;-67
2022/08/11 11:42:03;;;;;;;9.25;4.05;;;;;;;33.39;23.88;102039.00;5063657;28;20028;-67
2022/08/11 11:44:30;;;;;;;7.93;4.13;;;;;;;33.52;23.63;102031.31;5063052;28;20029;-67
2022/08/11 11:46:57;;;;;;;9.40;4.32;;;;;;;33.56;23.53;102030.22;5063190;28;20021;-67
2022/08/11 11:49:27;;;;;;;6.60;3.95;;;;;;;33.59;23.84;102036.38;5047112;28;20037;-67
2022/08/11 11:51:54;;;;;;;7.30;4.18;;;;;;;33.23;22.24;102024.66;5043956;28;20455;-67
2022/08/11 11:54:25;;;;;;;9.38;4.20;;;;;;;33.04;23.47;102030.13;5044545;28;20060;-67
2022/08/11 11:56:55;;;;;;;13.07;4.20;;;;;;;33.19;23.07;102020.03;5043868;28;20032;-67
2022/08/11 12:02:08;;;;;;;7.30;4.18;;;;;;;33.58;22.30;102023.34;5042660;28;20102;-67
2022/08/11 12:04:36;;;;;;;5.93;3.67;;;;;;;33.72;21.43;102013.22;5043624;28;20025;-67
2022/08/11 12:09:48;;;;;;;8.25;4.22;;;;;;;33.85;20.59;102011.13;5064314;28;20109;-67
2022/08/11 12:14:59;;;;;;;10.23;4.05;;;;;;;33.98;20.72;102007.09;5063728;28;20112;-67
2022/08/11 12:17:24;;;;;;;7.00;3.58;;;;;;;34.21;21.81;102007.31;5063033;28;20107;-68
2022/08/11 12:19:50;;;;;;;7.45;3.90;;;;;;;33.90;21.58;102008.03;5063959;28;20985;-68
2022/08/11 12:27:46;;;;;;;7.18;3.70;;;;;;;34.08;21.85;101998.00;5044102;28;20154;-68
2022/08/11 12:30:12;;;;;;;6.70;4.13;;;;;;;34.15;22.18;101999.38;5043232;28;20499;-67
2022/08/11 12:32:39;;;;;;;7.13;3.50;;;;;;;34.22;21.47;101991.88;5042707;28;20207;-67
2022/08/11 12:35:05;;;;;;;7.63;4.40;;;;;;;34.31;22.53;102000.25;5043429;28;20067;-67
2022/08/11 12:37:33;;;;;;;8.97;3.97;;;;;;;34.43;22.75;101997.34;5043109;28;20128;-68
2022/08/11 12:45:31;;;;;;;7.53;3.90;;;;;;;34.68;21.05;101974.38;5043527;28;20048;-67
2022/08/11 12:53:56;;;;;;;10.82;4.20;;;;;;;34.31;22.64;101966.00;5043785;28;20048;-67
2022/08/11 13:04:54;;;;;;;5.03;3.30;;;;;;;33.99;21.28;101963.13;5062663;28;20081;-68
2022/08/11 13:07:22;;;;;;;7.45;3.50;;;;;;;34.26;20.39;101954.88;5061943;28;20432;-67
2022/08/11 13:09:49;;;;;;;5.27;3.27;;;;;;;34.31;20.19;101952.59;5063199;28;20510;-68
2022/08/11 13:15:01;;;;;;;8.68;3.42;;;;;;;34.34;21.95;101942.47;5053235;28;20490;-67
2022/08/11 13:17:28;;;;;;;8.27;3.22;;;;;;;34.19;21.88;101934.75;5041698;28;20092;-67
2022/08/11 13:19:54;;;;;;;;;;;;;;;34.87;22.15;101943.00;5042332;28;20173;-67
2022/08/11 13:22:21;;;;;;;8.30;3.70;;;;;;;34.76;20.93;101941.94;5042590;28;20000;-67
2022/08/11 13:24:48;;;;;;;7.43;3.63;;;;;;;34.70;20.53;101941.38;5042966;28;20024;-67
2022/08/11 13:27:17;;;;;;;6.82;3.45;;;;;;;34.59;20.73;101935.41;5041487;28;20049;-67
2022/08/11 13:29:45;;;;;;;6.45;3.10;;;;;;;34.74;21.28;101935.78;5041916;28;20029;-67
2022/08/11 13:32:12;;;;;;;8.55;3.50;;;;;;;34.81;20.17;101927.38;5040781;28;20544;-67
2022/08/11 13:34:41;;;;;;;8.07;3.78;;;;;;;34.84;19.70;101920.94;5040513;28;20028;-67
2022/08/11 13:37:09;;;;;;;7.18;3.28;;;;;;;34.75;21.10;101917.44;5041564;28;20502;-67
2022/08/11 13:39:36;;;;;;;6.40;3.55;;;;;;;34.73;21.31;101914.16;5042375;28;20029;-67
2022/08/11 13:42:03;;;;;;;7.55;3.50;;;;;;;34.67;21.71;101922.13;5041315;28;20083;-67
2022/08/11 13:44:33;;;;;;;6.55;3.20;;;;;;;34.59;21.14;101908.91;5042078;28;20043;-67
2022/08/11 13:47:02;;;;;;;6.55;3.20;;;;;;;34.72;21.04;101906.75;5040875;28;20056;-67
2022/08/11 13:49:35;;;;;;;7.28;3.35;;;;;;;34.79;21.21;101904.94;5047909;28;20033;-67
2022/08/11 13:52:02;;;;;;;5.90;3.20;;;;;;;34.74;19.09;101905.22;5061234;28;20047;-68
2022/08/11 13:54:30;;;;;;;6.45;3.38;;;;;;;34.89;20.77;101911.25;5061997;28;20117;-67
2022/08/11 13:57:07;;;;;;;8.40;3.58;;;;;;;35.05;21.54;101909.22;5062012;28;20024;-67
2022/08/11 13:59:33;;;;;;;8.85;3.45;;;;;;;34.90;21.70;101901.50;5061763;28;20089;-68
2022/08/11 14:02:03;;;;;;;9.75;3.38;;;;;;;35.01;21.00;101899.75;5060729;28;20040;-67
2022/08/11 14:04:39;;;;;;;5.55;3.40;;;;;;;34.89;19.22;101897.81;5062037;28;20483;-68
2022/08/11 14:07:07;;;;;;;6.55;3.25;;;;;;;34.92;22.00;101901.94;5058236;28;20155;-67
2022/08/11 14:09:39;;;;;;;4.53;2.63;;;;;;;34.92;20.21;101899.91;5061521;28;20041;-68
2022/08/11 14:15:02;;;;;;;7.78;3.13;;;;;;;34.87;20.86;101879.38;5061605;28;20082;-67
2022/08/11 14:17:32;;;;;;;5.40;3.08;;;;;;;34.84;20.43;101892.41;5060513;28;20035;-68
2022/08/11 14:20:05;;;;;;;6.38;3.17;;;;;;;34.96;20.22;101886.56;5060912;28;20518;-67
2022/08/11 14:22:31;;;;;;;9.55;3.20;;;;;;;34.89;21.33;101883.53;5042499;28;20036;-67
2022/08/11 14:24:57;;;;;;;5.93;2.97;;;;;;;34.63;19.39;101886.19;5044440;28;20066;-68
2022/08/11 14:27:25;;;;;;;7.30;2.90;;;;;;;34.47;19.03;101883.31;5041254;28;20036;-68
2022/08/11 14:29:53;;;;;;;11.63;2.67;;;;;;;34.33;18.95;101883.78;5041403;28;20095;-67
2022/08/11 14:32:21;;;;;;;6.18;2.90;;;;;;;34.31;18.66;101881.28;5040975;28;20588;-68
2022/08/11 14:34:46;;;;;;;6.55;2.70;;;;;;;34.37;18.99;101887.56;5041423;28;20177;-68
2022/08/11 14:37:21;;;;;;;6.18;2.90;;;;;;;34.17;18.49;101880.13;5041195;28;20025;-68
2022/08/11 14:39:50;;;;;;;7.93;3.15;;;;;;;34.11;18.61;101881.56;5041546;28;20025;-68
2022/08/11 14:47:50;;;;;;;;;;;;;;;34.49;20.50;101864.66;5042138;28;20055;-68
2022/08/11 14:50:23;;;;;;;6.32;2.70;;;;;;;34.17;19.77;101871.56;5041472;28;19963;-68
2022/08/11 14:52:53;;;;;;;5.85;2.90;;;;;;;34.10;20.38;101865.66;5042005;28;20033;-68
2022/08/11 14:58:07;;;;;;;6.80;3.05;;;;;;;33.96;20.28;101866.94;5041672;28;20040;-67
2022/08/11 15:00:33;;;;;;;6.78;2.78;;;;;;;33.88;20.39;101861.38;5042681;28;20455;-67
2022/08/11 15:03:11;;;;;;;6.03;2.90;;;;;;;33.96;20.89;101852.69;5039773;28;20029;-68
2022/08/11 15:05:51;;;;;;;6.53;3.00;;;;;;;33.88;21.84;101852.81;5040882;28;20499;-67
2022/08/11 15:08:17;;;;;;;7.72;2.97;;;;;;;33.83;21.41;101849.06;5041086;28;20700;-68
2022/08/11 15:10:48;;;;;;;6.80;2.70;;;;;;;33.69;21.42;101844.97;5041147;28;20529;-67
2022/08/11 15:13:19;;;;;;;5.75;2.75;;;;;;;33.54;21.24;101847.44;5041370;28;20021;-68
2022/08/11 15:18:30;;;;;;;4.95;2.60;;;;;;;33.43;21.86;101845.47;5042026;28;20126;-67
2022/08/11 15:37:41;;;;;;;5.20;3.05;;;;;;;32.65;22.73;101827.63;5044219;28;20051;-67
2022/08/11 15:45:49;;;;;;;8.68;3.30;;;;;;;32.73;22.95;101822.97;5043561;28;19959;-67
2022/08/11 15:48:24;;;;;;;4.60;2.95;;;;;;;32.60;22.77;101822.19;5043725;28;20511;-67
2022/08/11 15:50:53;;;;;;;5.60;2.55;;;;;;;32.57;23.58;101820.03;5049018;28;20067;-67
2022/08/11 15:53:21;;;;;;;7.15;2.90;;;;;;;32.56;23.09;101815.53;5044605;28;20029;-67
2022/08/11 15:55:47;;;;;;;4.35;2.75;;;;;;;32.42;22.34;101813.06;5044272;28;20029;-67
2022/08/11 16:04:10;;;;;;;5.10;2.97;;;;;;;32.30;22.71;101807.38;5005167;28;20141;-68
2022/08/11 16:06:48;;;;;;;7.57;3.05;;;;;;;32.34;22.65;101807.47;5042990;28;20041;-68
2022/08/11 16:09:16;;;;;;;8.13;2.90;;;;;;;32.13;23.80;101801.91;5041165;28;20045;-68
2022/08/11 16:11:44;;;;;;;10.25;3.00;;;;;;;31.94;23.65;101796.81;5043788;28;20176;-68
2022/08/11 16:16:58;;;;;;;6.32;2.90;;;;;;;31.86;23.52;101789.22;5042721;28;20087;-68
2022/08/11 16:19:27;;;;;;;8.63;2.90;;;;;;;31.69;24.02;101795.91;5043903;28;20024;-67
2022/08/11 16:21:54;;;;;;;6.95;2.90;;;;;;;31.60;24.51;101795.19;5042596;28;20040;-67
2022/08/11 16:24:22;;;;;;;4.93;2.70;;;;;;;31.67;24.45;101792.59;5043858;28;20056;-68
2022/08/11 16:26:49;;;;;;;;;;;;;;;31.84;24.26;101786.75;5044361;28;20044;-68
2022/08/11 16:29:15;;;;;;;6.60;3.53;;;;;;;31.56;24.13;101788.53;5042775;28;19920;-68
2022/08/11 16:31:41;;;;;;;6.32;3.13;;;;;;;31.47;24.26;101789.44;5042380;28;20446;-68
2022/08/11 16:38:33;;;;;;;5.88;3.05;;;;;;;31.45;24.45;101780.47;5043499;28;20079;-68
2022/08/11 16:39:42;;;;;;;7.25;2.70;;;;;;;31.38;24.92;101780.22;5045953;28;20078;-68
2022/08/11 16:47:44;;;;;;;5.78;2.90;;;;;;;31.14;25.43;101780.09;5062705;28;20059;-68
2022/08/11 16:50:10;;;;;;;5.75;2.78;;;;;;;31.00;24.67;101780.38;5055091;28;20025;-68
2022/08/11 16:52:36;;;;;;;4.75;2.60;;;;;;;30.98;24.59;101777.06;5042971;28;20021;-68
2022/08/11 16:55:02;;;;;;;5.25;2.80;;;;;;;30.94;24.80;101771.25;5043023;28;20029;-68